Meitokumaru — JG5707 — position and weather

sailwx.info

Track history (hours):
 
Tides and Currents Weather Stations Pressure Air Temp Water Temp Dewpoint Dewpoint Depression Visibility Wind Speed Wind Dir Waves Ship Positions

Meitokumaru

Last reported at 2018-Jul-01 07:12 UTC. Time now 2018-Jul-19 19:25 UTC.
Position N 35°05' E 139°36'.
Warning: this ship's position is 18 days out of date.

Length 62 m.

Type: Tanker. MMSI: 431101051.

Date/timePositionNaut miles runAvg speedWind from/ knotsBaromVisibWave heightAir tempDewpointWater temp
2018-Jul-01 07:12N 35°05' E 139°36'211.4
2018-Jul-01 07:00N 35°06' E 139°38'611.0
2018-Jul-01 06:30N 35°09' E 139°44'610.2
2018-Jul-01 05:55N 35°15' E 139°46'410.3
2018-Jul-01 05:30N 35°19' E 139°43'12 1.6
2018-Jun-30 22:09N 35°30' E 139°45'0 0.0
2018-Jun-30 21:42N 35°30' E 139°45'0 0.0
2018-Jun-30 19:54N 35°30' E 139°45'0 0.0
2018-Jun-30 16:33N 35°30' E 139°45'0 0.0
2018-Jun-30 12:21N 35°30' E 139°45'0 0.0
2018-Jun-30 10:48N 35°30' E 139°45'0 0.0
2018-Jun-30 08:06N 35°30' E 139°45'0 0.0
2018-Jun-30 08:00N 35°30' E 139°45'0 0.0
2018-Jun-30 05:45N 35°30' E 139°45'8 0.6
2018-Jun-29 17:10N 35°23' E 139°46'312.0
2018-Jun-29 16:58N 35°20' E 139°45'611.0
2018-Jun-29 16:23N 35°14' E 139°47'411.4
2018-Jun-29 16:00N 35°10' E 139°47'510.6
2018-Jun-29 15:29N 35°05' E 139°44'24410.2
2018-Jun-28 15:28N 33°54' E 135°00'5 9.7
2018-Jun-28 15:00N 33°58' E 134°57'910.4
2018-Jun-28 14:07N 34°05' E 134°49'  
Track history (hours):
 
Tides and Currents Weather Stations Pressure Air Temp Water Temp Dewpoint Dewpoint Depression Visibility Wind Speed Wind Dir Waves Ship Positions

Meitokumaru

Last reported at 2018-Jul-01 07:12 UTC. Time now 2018-Jul-19 19:25 UTC.
Position N 35°05' E 139°36'.
Warning: this ship's position is 18 days out of date.

Length 62 m.

Type: Tanker. MMSI: 431101051.

Date/timePositionNaut miles runAvg speedWind from/ knotsBaromVisibWave heightAir tempDewpointWater temp
2018-Jul-01 07:12N 35°05' E 139°36'211.4
2018-Jul-01 07:00N 35°06' E 139°38'611.0
2018-Jul-01 06:30N 35°09' E 139°44'610.2
2018-Jul-01 05:55N 35°15' E 139°46'410.3
2018-Jul-01 05:30N 35°19' E 139°43'12 1.6
2018-Jun-30 22:09N 35°30' E 139°45'0 0.0
2018-Jun-30 21:42N 35°30' E 139°45'0 0.0
2018-Jun-30 19:54N 35°30' E 139°45'0 0.0
2018-Jun-30 16:33N 35°30' E 139°45'0 0.0
2018-Jun-30 12:21N 35°30' E 139°45'0 0.0
2018-Jun-30 10:48N 35°30' E 139°45'0 0.0
2018-Jun-30 08:06N 35°30' E 139°45'0 0.0
2018-Jun-30 08:00N 35°30' E 139°45'0 0.0
2018-Jun-30 05:45N 35°30' E 139°45'8 0.6
2018-Jun-29 17:10N 35°23' E 139°46'312.0
2018-Jun-29 16:58N 35°20' E 139°45'611.0
2018-Jun-29 16:23N 35°14' E 139°47'411.4
2018-Jun-29 16:00N 35°10' E 139°47'510.6
2018-Jun-29 15:29N 35°05' E 139°44'24410.2
2018-Jun-28 15:28N 33°54' E 135°00'5 9.7
2018-Jun-28 15:00N 33°58' E 134°57'910.4
2018-Jun-28 14:07N 34°05' E 134°49'  

Dump ship's entire track history